createdAt,value
2023-05-06T00:02:08.341Z,101923.75
2023-05-06T00:08:50.893Z,101922.84
2023-05-06T00:15:33.085Z,101913.31
2023-05-06T00:22:15.973Z,101928.03
2023-05-06T00:28:58.190Z,101931.50
2023-05-06T00:35:40.385Z,101919.25
2023-05-06T00:42:23.392Z,101941.00
2023-05-06T00:49:06.516Z,101941.94
2023-05-06T00:55:51.311Z,101936.63
2023-05-06T01:02:45.774Z,101947.03
2023-05-06T01:09:42.804Z,101953.97
2023-05-06T01:16:29.613Z,101959.13
2023-05-06T01:23:13.182Z,101964.34
2023-05-06T01:29:55.742Z,101955.56
2023-05-06T01:36:46.002Z,101956.38
2023-05-06T01:43:34.920Z,101957.13
2023-05-06T01:50:18.166Z,101943.97
2023-05-06T01:57:00.478Z,101949.03
2023-05-06T02:03:42.743Z,101944.56
2023-05-06T02:10:25.551Z,101943.50
2023-05-06T02:17:14.154Z,101944.16
2023-05-06T02:23:57.464Z,101947.44
2023-05-06T02:30:40.908Z,101945.50
2023-05-06T02:37:23.406Z,101954.88
2023-05-06T02:44:06.232Z,101959.09
2023-05-06T02:50:48.461Z,101966.81
2023-05-06T02:57:30.788Z,101965.88
2023-05-06T03:04:31.982Z,101964.00
2023-05-06T03:11:14.628Z,101957.91
2023-05-06T03:17:56.925Z,101954.44
2023-05-06T03:24:40.700Z,101946.69
2023-05-06T03:31:23.347Z,101938.94
2023-05-06T03:38:07.144Z,101949.47
2023-05-06T03:45:12.352Z,101949.69
2023-05-06T03:51:55.340Z,101955.00
2023-05-06T03:58:39.829Z,101960.38
2023-05-06T04:05:25.362Z,101957.13
2023-05-06T04:12:08.472Z,101948.59
2023-05-06T04:18:52.806Z,101941.00
2023-05-06T04:25:35.856Z,101948.19
2023-05-06T04:32:18.534Z,101953.69
2023-05-06T04:39:01.661Z,101959.13
2023-05-06T04:45:49.677Z,101958.56
2023-05-06T04:52:37.541Z,101953.69
2023-05-06T04:59:21.092Z,101960.06
2023-05-06T05:06:03.946Z,101956.84
2023-05-06T05:12:47.232Z,101950.97
2023-05-06T05:19:29.768Z,101942.53
2023-05-06T05:26:12.796Z,101932.47
2023-05-06T05:32:56.998Z,101932.78
2023-05-06T05:39:39.447Z,101926.13
2023-05-06T05:46:23.598Z,101916.00
2023-05-06T05:53:06.644Z,101909.44
2023-05-06T05:59:51.641Z,101922.88
2023-05-06T06:06:34.048Z,101918.03
2023-05-06T06:13:16.571Z,101929.81
2023-05-06T06:19:59.511Z,101918.88
2023-05-06T06:26:41.778Z,101917.47
2023-05-06T06:33:24.770Z,101911.81
2023-05-06T06:40:08.091Z,101909.53
2023-05-06T06:46:50.455Z,101917.75
2023-05-06T06:53:33.040Z,101909.34
2023-05-06T07:00:15.670Z,101907.91
2023-05-06T07:06:57.882Z,101899.41
2023-05-06T07:13:40.472Z,101895.22
2023-05-06T07:20:22.604Z,101880.44
2023-05-06T07:27:04.945Z,101876.16
2023-05-06T07:33:48.255Z,101877.19
2023-05-06T07:40:30.490Z,101872.88
2023-05-06T07:47:17.194Z,101885.22
2023-05-06T07:53:59.420Z,101878.25
2023-05-06T08:00:41.666Z,101882.66
2023-05-06T08:07:23.936Z,101871.25
2023-05-06T08:14:06.342Z,101866.88
2023-05-06T08:20:48.733Z,101852.81
2023-05-06T08:27:31.165Z,101846.66
2023-05-06T08:34:13.438Z,101836.06
2023-05-06T08:40:58.624Z,101841.31
2023-05-06T08:47:41.886Z,101835.13
2023-05-06T08:54:26.629Z,101831.63
2023-05-06T09:01:09.474Z,101831.59
2023-05-06T09:07:52.720Z,101837.69
2023-05-06T09:14:35.051Z,101839.44
2023-05-06T09:21:17.288Z,101830.63
2023-05-06T09:28:12.093Z,101837.66
2023-05-06T09:34:54.901Z,101838.50
2023-05-06T09:41:37.526Z,101835.81
2023-05-06T09:48:20.006Z,101835.78
2023-05-06T09:55:03.822Z,101826.09
2023-05-06T10:01:46.072Z,101829.56
2023-05-06T10:08:29.245Z,101823.28
2023-05-06T10:15:11.765Z,101808.25
2023-05-06T10:22:41.970Z,101815.22
2023-05-06T10:29:26.806Z,101805.47
2023-05-06T10:36:28.442Z,101782.44
2023-05-06T10:43:27.602Z,101784.97
2023-05-06T10:50:26.789Z,101780.44
2023-05-06T10:57:10.194Z,101773.25
2023-05-06T11:03:52.948Z,101777.56
2023-05-06T11:10:35.872Z,101767.84
2023-05-06T11:17:33.294Z,101771.28
2023-05-06T11:24:27.262Z,101772.97
2023-05-06T11:31:10.411Z,101768.50
2023-05-06T11:37:52.843Z,101768.38
2023-05-06T11:44:38.705Z,101762.09
2023-05-06T11:51:24.148Z,101757.53
2023-05-06T11:58:06.366Z,101767.97
2023-05-06T12:04:50.172Z,101759.09
2023-05-06T12:11:34.953Z,101756.31
2023-05-06T12:18:17.397Z,101747.28
2023-05-06T12:25:12.371Z,101755.88
2023-05-06T12:32:09.547Z,101756.63
2023-05-06T12:38:52.231Z,101747.75
2023-05-06T12:45:34.577Z,101746.00
2023-05-06T12:52:19.326Z,101737.09
2023-05-06T12:59:03.533Z,101728.22
2023-05-06T13:05:50.340Z,101725.59
2023-05-06T13:12:33.351Z,101717.69
2023-05-06T13:19:31.062Z,101722.03
2023-05-06T13:26:15.417Z,101726.28
2023-05-06T13:32:57.965Z,101723.50
2023-05-06T13:39:40.893Z,101733.22
2023-05-06T13:46:23.297Z,101718.19
2023-05-06T13:53:05.499Z,101719.09
2023-05-06T13:59:49.072Z,101714.66
2023-05-06T14:06:31.525Z,101710.16
2023-05-06T14:13:14.012Z,101707.44
2023-05-06T14:19:56.258Z,101696.81
2023-05-06T14:26:39.045Z,101703.00
2023-05-06T14:33:23.232Z,101695.91
2023-05-06T14:40:06.604Z,101693.25
2023-05-06T14:46:49.708Z,101690.59
2023-05-06T14:53:31.891Z,101695.91
2023-05-06T15:00:14.922Z,101688.16
2023-05-06T15:06:57.952Z,101692.69
2023-05-06T15:13:40.374Z,101682.22
2023-05-06T15:20:22.595Z,101675.31
2023-05-06T15:27:04.900Z,101679.91
2023-05-06T15:33:47.193Z,101679.41
2023-05-06T15:40:29.631Z,101680.56
2023-05-06T15:47:11.788Z,101671.91
2023-05-06T15:53:54.091Z,101680.00
2023-05-06T16:00:36.625Z,101679.28
2023-05-06T16:07:18.807Z,101678.56
2023-05-06T16:14:01.208Z,101678.66
2023-05-06T16:20:43.396Z,101683.13
2023-05-06T16:27:28.172Z,101682.31
2023-05-06T16:34:12.421Z,101686.78
2023-05-06T16:40:54.699Z,101683.28
2023-05-06T16:47:37.091Z,101686.75
2023-05-06T16:54:19.549Z,101684.97
2023-05-06T17:01:01.780Z,101689.34
2023-05-06T17:07:44.173Z,101686.75
2023-05-06T17:14:26.723Z,101692.09
2023-05-06T17:21:09.021Z,101694.91
2023-05-06T17:27:51.297Z,101689.78
2023-05-06T17:34:35.423Z,101689.94
2023-05-06T17:41:17.918Z,101698.09
2023-05-06T17:48:00.072Z,101699.22
2023-05-06T17:54:42.313Z,101705.63
2023-05-06T18:01:24.584Z,101703.19
2023-05-06T18:08:06.912Z,101711.22
2023-05-06T18:14:49.211Z,101710.47
2023-05-06T18:21:33.975Z,101714.97
2023-05-06T18:28:16.920Z,101722.03
2023-05-06T18:34:59.108Z,101716.81
2023-05-06T18:41:41.463Z,101729.09
2023-05-06T18:48:23.684Z,101741.34
2023-05-06T18:55:07.495Z,101736.03
2023-05-06T19:01:49.682Z,101745.59
2023-05-06T19:08:32.283Z,101746.41
2023-05-06T19:15:14.759Z,101744.59
2023-05-06T19:21:57.516Z,101760.28
2023-05-06T19:28:40.733Z,101758.44
2023-05-06T19:35:22.962Z,101758.34
2023-05-06T19:42:06.243Z,101760.88
2023-05-06T19:48:48.381Z,101763.41
2023-05-06T19:55:31.268Z,101772.06
2023-05-06T20:02:16.611Z,101769.38
2023-05-06T20:08:58.796Z,101766.63
2023-05-06T20:15:41.602Z,101770.91
2023-05-06T20:22:23.886Z,101766.50
2023-05-06T20:29:06.207Z,101759.44
2023-05-06T20:35:48.396Z,101762.91
2023-05-06T20:42:30.787Z,101768.97
2023-05-06T20:49:12.925Z,101777.75
2023-05-06T20:55:55.129Z,101768.94
2023-05-06T21:02:41.373Z,101773.31
2023-05-06T21:09:26.996Z,101779.41
2023-05-06T21:16:09.329Z,101782.88
2023-05-06T21:22:51.649Z,101788.94
2023-05-06T21:29:33.943Z,101787.13
2023-05-06T21:36:16.284Z,101788.00
2023-05-06T21:42:58.545Z,101797.59
2023-05-06T21:49:40.676Z,101794.06
2023-05-06T21:56:22.935Z,101794.91
2023-05-06T22:03:05.210Z,101791.38
2023-05-06T22:09:47.416Z,101796.56
2023-05-06T22:16:29.824Z,101810.44
2023-05-06T22:23:12.471Z,101807.69
2023-05-06T22:29:54.585Z,101804.78
2023-05-06T22:36:36.734Z,101807.28
2023-05-06T22:43:18.912Z,101805.34
2023-05-06T22:50:01.193Z,101809.50
2023-05-06T22:56:43.401Z,101810.16
2023-05-06T23:03:25.864Z,101807.34
2023-05-06T23:10:08.866Z,101808.16
2023-05-06T23:16:51.347Z,101807.19
2023-05-06T23:23:33.661Z,101812.31
2023-05-06T23:30:16.446Z,101811.34
2023-05-06T23:36:58.664Z,101824.31
2023-05-06T23:43:40.907Z,101824.22
2023-05-06T23:50:23.093Z,101824.03
2023-05-06T23:57:05.440Z,101822.19
